createdAt,value
2019-04-01T00:00:09.711Z,51.03
2019-04-01T00:02:39.199Z,45.47
2019-04-01T00:05:09.721Z,55.63
2019-04-01T00:07:38.969Z,55.40
2019-04-01T00:10:08.052Z,51.50
2019-04-01T00:12:37.125Z,50.07
2019-04-01T00:15:06.264Z,48.57
2019-04-01T00:17:36.975Z,50.40
2019-04-01T00:20:06.310Z,43.40
2019-04-01T00:22:35.390Z,54.37
2019-04-01T00:25:04.416Z,51.23
2019-04-01T00:27:33.524Z,51.10
2019-04-01T00:30:02.579Z,48.07
2019-04-01T00:32:31.658Z,56.70
2019-04-01T00:35:01.024Z,52.07
2019-04-01T00:37:30.184Z,52.67
2019-04-01T00:40:01.763Z,56.27
2019-04-01T00:42:35.918Z,57.23
2019-04-01T00:45:07.971Z,50.00
2019-04-01T00:47:37.100Z,55.33
2019-04-01T00:50:06.420Z,42.57
2019-04-01T00:52:39.829Z,57.40
2019-04-01T00:55:10.273Z,47.87
2019-04-01T00:57:39.413Z,52.73
2019-04-01T01:00:10.999Z,47.37
2019-04-01T01:02:42.901Z,65.87
2019-04-01T01:05:17.726Z,60.10
2019-04-01T01:07:49.172Z,62.07
2019-04-01T01:10:22.913Z,54.87
2019-04-01T01:12:57.654Z,53.30
2019-04-01T01:15:26.949Z,55.57
2019-04-01T01:17:55.993Z,54.83
2019-04-01T01:20:25.039Z,54.20
2019-04-01T01:22:55.179Z,55.73
2019-04-01T01:25:24.336Z,46.23
2019-04-01T01:27:53.370Z,48.60
2019-04-01T01:30:26.552Z,48.47
2019-04-01T01:32:55.965Z,60.33
2019-04-01T01:35:25.142Z,52.70
2019-04-01T01:37:54.199Z,51.30
2019-04-01T01:40:23.260Z,50.83
2019-04-01T01:42:52.305Z,51.60
2019-04-01T01:45:24.388Z,44.70
2019-04-01T01:47:53.434Z,51.90
2019-04-01T01:50:22.559Z,52.73
2019-04-01T01:52:51.830Z,49.70
2019-04-01T01:55:24.072Z,47.93
2019-04-01T01:57:53.655Z,59.17
2019-04-01T02:00:27.047Z,53.57
2019-04-01T02:02:59.861Z,50.60
2019-04-01T02:05:27.812Z,45.20
2019-04-01T02:08:02.692Z,55.23
2019-04-01T02:10:40.916Z,58.13
2019-04-01T02:13:10.033Z,52.60
2019-04-01T02:15:41.000Z,55.50
2019-04-01T02:18:10.149Z,52.10
2019-04-01T02:20:42.232Z,54.10
2019-04-01T02:23:11.296Z,49.57
2019-04-01T02:25:40.398Z,49.17
2019-04-01T02:28:09.532Z,51.17
2019-04-01T02:30:38.574Z,50.47
2019-04-01T02:33:09.036Z,51.13
2019-04-01T02:35:42.579Z,47.90
2019-04-01T02:38:16.427Z,42.53
2019-04-01T02:40:50.633Z,51.93
2019-04-01T02:43:19.749Z,50.67
2019-04-01T02:45:48.882Z,46.00
2019-04-01T02:48:17.913Z,54.20
2019-04-01T02:50:47.024Z,50.73
2019-04-01T02:53:16.197Z,40.10
2019-04-01T02:55:49.069Z,53.33
2019-04-01T02:58:25.434Z,50.37
2019-04-01T03:00:54.472Z,52.57
2019-04-01T03:03:23.539Z,50.10
2019-04-01T03:05:54.242Z,52.83
2019-04-01T03:08:26.378Z,45.27
2019-04-01T03:10:55.453Z,55.13
2019-04-01T03:13:24.515Z,45.40
2019-04-01T03:15:53.594Z,51.23
2019-04-01T03:18:23.022Z,49.33
2019-04-01T03:20:54.494Z,47.37
2019-04-01T03:23:29.732Z,47.07
2019-04-01T03:25:58.819Z,59.97
2019-04-01T03:28:27.942Z,50.40
2019-04-01T03:30:56.994Z,47.77
2019-04-01T03:33:26.063Z,50.67
2019-04-01T03:35:55.116Z,53.63
2019-04-01T03:38:27.634Z,46.10
2019-04-01T03:41:04.103Z,51.57
2019-04-01T03:43:36.202Z,46.57
2019-04-01T03:46:08.368Z,47.10
2019-04-01T03:48:37.470Z,48.70
2019-04-01T03:51:06.499Z,47.83
2019-04-01T03:53:35.568Z,41.07
2019-04-01T03:56:04.816Z,51.83
2019-04-01T03:58:35.023Z,49.93
2019-04-01T04:01:05.640Z,56.80
2019-04-01T04:03:40.820Z,47.57
2019-04-01T04:06:09.864Z,50.13
2019-04-01T04:08:41.802Z,56.77
2019-04-01T04:11:10.967Z,53.30
2019-04-01T04:13:40.027Z,49.63
2019-04-01T04:16:09.464Z,52.83
2019-04-01T04:18:41.585Z,56.50
2019-04-01T04:21:12.223Z,49.43
2019-04-01T04:23:41.278Z,43.20
2019-04-01T04:26:10.388Z,54.23
2019-04-01T04:28:40.002Z,43.57
2019-04-01T04:31:12.512Z,43.90
2019-04-01T04:33:41.560Z,41.60
2019-04-01T04:36:12.868Z,55.17
2019-04-01T04:38:42.071Z,59.70
2019-04-01T04:41:11.123Z,53.17
2019-04-01T04:43:45.335Z,57.23
2019-04-01T04:46:14.737Z,51.57
2019-04-01T04:48:46.875Z,54.33
2019-04-01T04:51:15.979Z,50.97
2019-04-01T04:53:47.430Z,50.87
2019-04-01T04:56:18.271Z,52.20
2019-04-01T04:58:52.158Z,48.20
2019-04-01T05:01:21.239Z,58.60
2019-04-01T05:03:50.319Z,69.07
2019-04-01T05:06:19.504Z,51.43
2019-04-01T05:08:49.937Z,66.00
2019-04-01T05:11:20.795Z,55.07
2019-04-01T05:13:54.002Z,57.30
2019-04-01T05:16:27.159Z,43.20
2019-04-01T05:19:03.332Z,57.03
2019-04-01T05:21:35.627Z,47.90
2019-04-01T05:24:04.758Z,58.20
2019-04-01T05:26:40.868Z,57.53
2019-04-01T05:29:10.686Z,58.80
2019-04-01T05:31:40.001Z,65.50
2019-04-01T05:34:17.066Z,59.10
2019-04-01T05:36:47.056Z,57.70
2019-04-01T05:39:16.105Z,60.43
2019-04-01T05:41:48.613Z,54.10
2019-04-01T05:44:19.953Z,53.43
2019-04-01T05:46:49.326Z,46.63
2019-04-01T05:49:18.615Z,59.67
2019-04-01T05:51:47.960Z,49.10
2019-04-01T05:54:19.967Z,59.40
2019-04-01T05:56:52.071Z,46.00
2019-04-01T05:59:21.340Z,54.43
2019-04-01T06:01:51.883Z,58.30
2019-04-01T06:04:21.796Z,60.77
2019-04-01T06:06:50.853Z,53.93
2019-04-01T06:09:21.706Z,46.50
2019-04-01T06:12:05.859Z,49.90
2019-04-01T06:14:45.396Z,63.97
2019-04-01T06:17:06.490Z,46.70
2019-04-01T06:19:35.531Z,55.83
2019-04-01T06:22:08.428Z,52.43
2019-04-01T06:24:41.289Z,42.00
2019-04-01T06:27:11.203Z,49.73
2019-04-01T06:29:42.117Z,54.33
2019-04-01T06:32:16.447Z,51.73
2019-04-01T06:34:52.702Z,48.77
2019-04-01T06:37:19.887Z,46.50
2019-04-01T06:39:52.720Z,46.67
2019-04-01T06:42:24.586Z,49.20
2019-04-01T06:44:56.677Z,45.90
2019-04-01T06:47:30.795Z,51.20
2019-04-01T06:49:59.872Z,56.20
2019-04-01T06:52:29.034Z,49.60
2019-04-01T06:54:58.051Z,54.50
2019-04-01T06:57:29.483Z,53.00
2019-04-01T06:59:58.581Z,52.10
2019-04-01T07:02:30.127Z,51.23
2019-04-01T07:04:59.244Z,53.37
2019-04-01T07:07:32.869Z,51.13
2019-04-01T07:10:04.728Z,52.17
2019-04-01T07:12:34.937Z,51.97
2019-04-01T07:15:06.340Z,48.77
2019-04-01T07:17:38.321Z,48.73
2019-04-01T07:20:13.836Z,57.30
2019-04-01T07:22:44.576Z,54.00
2019-04-01T07:25:13.787Z,53.80
2019-04-01T07:27:43.202Z,47.90
2019-04-01T07:30:13.821Z,55.73
2019-04-01T07:32:48.898Z,56.10
2019-04-01T07:35:18.028Z,55.20
2019-04-01T07:37:49.608Z,53.13
2019-04-01T07:40:21.205Z,52.43
2019-04-01T07:42:50.460Z,54.47
2019-04-01T07:45:20.779Z,45.67
2019-04-01T07:47:52.327Z,49.83
2019-04-01T07:50:21.616Z,50.60
2019-04-01T07:52:55.250Z,54.37
2019-04-01T07:55:24.416Z,50.33
2019-04-01T07:57:59.887Z,54.53
2019-04-01T08:00:29.084Z,48.13
2019-04-01T08:03:02.685Z,56.30
2019-04-01T08:05:31.785Z,53.63
2019-04-01T08:08:01.567Z,59.00
2019-04-01T08:10:38.321Z,66.07
2019-04-01T08:13:09.362Z,59.83
2019-04-01T08:15:38.437Z,45.60
2019-04-01T08:18:07.505Z,58.40
2019-04-01T08:20:36.574Z,52.73
2019-04-01T08:23:05.594Z,53.97
2019-04-01T08:25:34.783Z,51.03
2019-04-01T08:28:06.325Z,55.87
2019-04-01T08:30:35.448Z,72.90
2019-04-01T08:33:04.782Z,49.77
2019-04-01T08:35:37.012Z,49.13
2019-04-01T08:38:08.787Z,51.03
2019-04-01T08:40:37.925Z,55.13
2019-04-01T08:43:08.118Z,55.27
2019-04-01T08:45:37.445Z,48.93
2019-04-01T08:48:09.642Z,49.57
2019-04-01T08:50:41.828Z,47.10
2019-04-01T08:53:10.963Z,54.80
2019-04-01T08:55:41.238Z,54.03
2019-04-01T08:58:11.134Z,58.40
2019-04-01T09:00:40.157Z,48.83
2019-04-01T09:03:12.769Z,46.83
2019-04-01T09:05:45.022Z,54.07
2019-04-01T09:08:15.904Z,50.33
2019-04-01T09:10:46.564Z,59.40
2019-04-01T09:13:18.339Z,61.77
2019-04-01T09:15:52.342Z,54.83
2019-04-01T09:18:26.566Z,46.77
2019-04-01T09:20:55.598Z,55.40
2019-04-01T09:23:24.669Z,47.83
2019-04-01T09:25:58.353Z,45.00
2019-04-01T09:28:30.161Z,51.03
2019-04-01T09:31:01.764Z,47.07
2019-04-01T09:33:30.839Z,59.23
2019-04-01T09:36:00.011Z,51.50
2019-04-01T09:38:29.064Z,69.13
2019-04-01T09:40:58.554Z,43.00
2019-04-01T09:43:27.614Z,54.47
2019-04-01T09:45:58.174Z,50.90
2019-04-01T09:48:31.165Z,61.07
2019-04-01T09:51:00.324Z,48.20
2019-04-01T09:53:29.738Z,50.97
2019-04-01T09:56:03.158Z,57.20
2019-04-01T09:58:35.339Z,47.63
2019-04-01T10:01:13.618Z,49.87
2019-04-01T10:03:42.894Z,54.27
2019-04-01T10:06:12.062Z,53.00
2019-04-01T10:08:42.954Z,54.53
2019-04-01T10:11:12.883Z,55.97
2019-04-01T10:13:42.103Z,57.97
2019-04-01T10:16:12.997Z,51.37
2019-04-01T10:18:42.100Z,50.07
2019-04-01T10:21:12.302Z,54.63
2019-04-01T10:23:41.487Z,52.00
2019-04-01T10:26:13.970Z,50.80
2019-04-01T10:28:43.311Z,59.83
2019-04-01T10:31:13.607Z,51.17
2019-04-01T10:33:43.552Z,57.80
2019-04-01T10:36:12.897Z,48.67
2019-04-01T10:38:46.485Z,51.70
2019-04-01T10:41:13.952Z,51.30
2019-04-01T10:43:43.082Z,54.87
2019-04-01T10:46:14.263Z,47.20
2019-04-01T10:48:45.604Z,52.10
2019-04-01T10:51:14.857Z,59.00
2019-04-01T10:53:44.037Z,46.30
2019-04-01T10:56:13.188Z,45.17
2019-04-01T10:58:42.347Z,41.93
2019-04-01T11:01:13.936Z,40.57
2019-04-01T11:03:43.436Z,52.07
2019-04-01T11:06:15.638Z,48.53
2019-04-01T11:08:46.244Z,43.90
2019-04-01T11:11:17.123Z,45.40
2019-04-01T11:13:51.707Z,52.23
2019-04-01T11:16:20.443Z,50.17
2019-04-01T11:18:49.621Z,45.40
2019-04-01T11:21:20.236Z,50.70
2019-04-01T11:23:49.745Z,49.73
2019-04-01T11:26:19.081Z,43.73
2019-04-01T11:28:53.844Z,42.60
2019-04-01T11:31:23.165Z,47.40
2019-04-01T11:33:53.988Z,46.60
2019-04-01T11:36:23.119Z,46.10
2019-04-01T11:38:52.547Z,48.40
2019-04-01T11:41:22.278Z,38.70
2019-04-01T11:43:52.535Z,38.30
2019-04-01T11:46:23.217Z,43.47
2019-04-01T11:48:52.570Z,45.47
2019-04-01T11:51:32.535Z,46.30
2019-04-01T11:53:53.901Z,47.47
2019-04-01T11:56:29.253Z,42.10
2019-04-01T11:59:01.597Z,42.70
2019-04-01T12:01:30.665Z,37.47
2019-04-01T12:03:59.799Z,44.50
2019-04-01T12:06:30.246Z,44.40
2019-04-01T12:09:07.024Z,40.70
2019-04-01T12:11:42.146Z,34.67
2019-04-01T12:14:12.301Z,46.10
2019-04-01T12:16:47.873Z,36.20
2019-04-01T12:19:20.048Z,39.63
2019-04-01T12:21:49.217Z,43.50
2019-04-01T12:24:18.299Z,44.37
2019-04-01T12:26:48.880Z,40.50
2019-04-01T12:29:17.918Z,38.43
2019-04-01T12:31:49.654Z,39.30
2019-04-01T12:34:18.975Z,42.47
2019-04-01T12:36:50.583Z,39.77
2019-04-01T12:39:20.186Z,43.10
2019-04-01T12:41:51.730Z,35.63
2019-04-01T12:44:20.950Z,39.70
2019-04-01T12:46:51.180Z,40.40
2019-04-01T12:49:23.837Z,39.73
2019-04-01T12:51:58.592Z,39.67
2019-04-01T12:54:31.446Z,40.60
2019-04-01T12:57:00.573Z,39.53
2019-04-01T12:59:32.370Z,38.80
2019-04-01T13:02:02.641Z,44.67
2019-04-01T13:04:31.718Z,43.10
2019-04-01T13:07:04.830Z,43.27
2019-04-01T13:09:32.218Z,39.93
2019-04-01T13:12:04.431Z,40.43
2019-04-01T13:14:40.070Z,41.57
2019-04-01T13:17:08.871Z,42.03
2019-04-01T13:19:38.031Z,33.90
2019-04-01T13:22:09.155Z,39.37
2019-04-01T13:24:38.878Z,39.13
2019-04-01T13:27:09.304Z,46.60
2019-04-01T13:29:42.875Z,39.53
2019-04-01T13:32:12.059Z,38.60
2019-04-01T13:34:42.494Z,32.50
2019-04-01T13:37:14.160Z,31.33
2019-04-01T13:39:46.268Z,35.87
2019-04-01T13:42:17.736Z,35.10
2019-04-01T13:44:49.387Z,29.07
2019-04-01T13:47:22.140Z,38.37
2019-04-01T13:50:00.451Z,33.03
2019-04-01T13:52:30.598Z,38.10
2019-04-01T13:55:03.178Z,36.90
2019-04-01T13:57:30.671Z,33.93
2019-04-01T14:00:03.725Z,38.33
2019-04-01T14:02:35.788Z,32.93
2019-04-01T14:05:06.271Z,36.73
2019-04-01T14:07:35.921Z,33.00
2019-04-01T14:10:06.133Z,32.97
2019-04-01T14:12:35.329Z,33.03
2019-04-01T14:15:04.980Z,33.47
2019-04-01T14:17:34.223Z,32.73
2019-04-01T14:20:05.214Z,28.70
2019-04-01T14:22:34.259Z,38.03
2019-04-01T14:25:07.130Z,31.27
2019-04-01T14:27:39.264Z,38.03
2019-04-01T14:30:08.847Z,30.77
2019-04-01T14:32:44.549Z,30.83
2019-04-01T14:35:15.859Z,30.47
2019-04-01T14:37:46.352Z,30.53
2019-04-01T14:40:22.022Z,30.37
2019-04-01T14:42:53.691Z,34.20
2019-04-01T14:45:23.101Z,26.50
2019-04-01T14:47:57.833Z,29.90
2019-04-01T14:50:37.795Z,35.03
2019-04-01T14:53:07.840Z,31.60
2019-04-01T14:55:37.027Z,28.87
2019-04-01T14:58:07.931Z,30.87
2019-04-01T15:00:40.127Z,29.00
2019-04-01T15:03:10.192Z,30.43
2019-04-01T15:05:39.567Z,33.67
2019-04-01T15:08:08.640Z,30.13
2019-04-01T15:10:41.013Z,32.70
2019-04-01T15:13:11.891Z,28.57
2019-04-01T15:15:41.478Z,32.90
2019-04-01T15:18:10.639Z,29.87
2019-04-01T15:20:39.696Z,26.37
2019-04-01T15:23:08.742Z,32.17
2019-04-01T15:25:37.946Z,32.10
2019-04-01T15:28:07.954Z,30.83
2019-04-01T15:30:37.027Z,31.77
2019-04-01T15:33:06.081Z,31.47
2019-04-01T15:35:35.646Z,33.20
2019-04-01T15:38:10.098Z,28.50
2019-04-01T15:40:39.182Z,27.90
2019-04-01T15:43:08.255Z,29.67
2019-04-01T15:45:37.344Z,28.70
2019-04-01T15:48:07.629Z,32.70
2019-04-01T15:50:38.323Z,26.60
2019-04-01T15:53:11.221Z,28.47
2019-04-01T15:55:43.559Z,31.00
2019-04-01T15:58:12.601Z,29.03
2019-04-01T16:00:42.064Z,28.83
2019-04-01T16:03:15.156Z,29.10
2019-04-01T16:05:45.611Z,29.03
2019-04-01T16:08:15.568Z,26.73
2019-04-01T16:10:44.951Z,24.50
2019-04-01T16:13:15.522Z,30.00
2019-04-01T16:16:07.070Z,26.70
2019-04-01T16:18:36.662Z,33.03
2019-04-01T16:21:05.927Z,25.47
2019-04-01T16:23:38.337Z,28.27
2019-04-01T16:26:09.524Z,28.63
2019-04-01T16:28:49.239Z,25.53
2019-04-01T16:31:18.445Z,30.43
2019-04-01T16:33:47.536Z,26.23
2019-04-01T16:36:16.594Z,26.30
2019-04-01T16:38:46.070Z,29.53
2019-04-01T16:41:18.424Z,24.63
2019-04-01T16:43:56.731Z,22.40
2019-04-01T16:46:25.811Z,31.43
2019-04-01T16:48:55.246Z,25.17
2019-04-01T16:51:25.924Z,26.70
2019-04-01T16:53:56.447Z,30.87
2019-04-01T16:56:28.310Z,29.10
2019-04-01T16:58:57.428Z,38.17
2019-04-01T17:01:27.687Z,29.47
2019-04-01T17:04:00.071Z,30.40
2019-04-01T17:06:29.224Z,28.03
2019-04-01T17:08:58.347Z,26.40
2019-04-01T17:11:28.507Z,23.13
2019-04-01T17:14:00.016Z,30.30
2019-04-01T17:16:29.160Z,29.10
2019-04-01T17:18:58.336Z,28.00
2019-04-01T17:21:27.463Z,28.27
2019-04-01T17:23:59.712Z,26.20
2019-04-01T17:26:28.773Z,25.53
2019-04-01T17:28:57.939Z,29.57
2019-04-01T17:31:27.067Z,29.10
2019-04-01T17:33:56.159Z,33.13
2019-04-01T17:36:25.319Z,25.20
2019-04-01T17:38:56.567Z,33.77
2019-04-01T17:41:25.636Z,27.40
2019-04-01T17:43:56.447Z,30.20
2019-04-01T17:46:29.278Z,28.47
2019-04-01T17:48:58.370Z,25.80
2019-04-01T17:51:27.462Z,27.57
2019-04-01T17:53:56.535Z,30.60
2019-04-01T17:56:27.475Z,24.30
2019-04-01T17:58:56.515Z,28.17
2019-04-01T18:01:25.643Z,29.40
2019-04-01T18:03:54.710Z,29.50
2019-04-01T18:06:24.100Z,31.77
2019-04-01T18:08:54.498Z,28.80
2019-04-01T18:11:23.693Z,27.27
2019-04-01T18:13:57.367Z,33.30
2019-04-01T18:16:26.482Z,32.90
2019-04-01T18:18:59.284Z,24.70
2019-04-01T18:21:28.414Z,29.93
2019-04-01T18:23:57.472Z,26.33
2019-04-01T18:26:30.966Z,38.13
2019-04-01T18:29:04.166Z,27.50
2019-04-01T18:31:44.442Z,27.93
2019-04-01T18:34:13.507Z,28.57
2019-04-01T18:36:42.562Z,34.17
2019-04-01T18:39:11.648Z,28.53
2019-04-01T18:41:40.733Z,28.23
2019-04-01T18:44:10.958Z,25.17
2019-04-01T18:46:41.137Z,29.23
2019-04-01T18:49:10.227Z,29.47
2019-04-01T18:51:42.873Z,24.87
2019-04-01T18:54:11.995Z,27.30
2019-04-01T18:56:41.064Z,29.27
2019-04-01T18:59:10.154Z,29.77
2019-04-01T19:01:39.515Z,24.37
2019-04-01T19:04:09.707Z,26.47
2019-04-01T19:06:40.638Z,25.17
2019-04-01T19:09:13.180Z,31.57
2019-04-01T19:11:43.543Z,21.63
2019-04-01T19:14:16.609Z,28.10
2019-04-01T19:16:47.466Z,28.90
2019-04-01T19:19:16.531Z,26.20
2019-04-01T19:21:45.818Z,25.20
2019-04-01T19:24:16.138Z,27.70
2019-04-01T19:26:47.694Z,24.57
2019-04-01T19:29:16.841Z,27.50
2019-04-01T19:31:45.928Z,23.60
2019-04-01T19:34:15.431Z,24.10
2019-04-01T19:36:48.956Z,24.80
2019-04-01T19:39:18.047Z,23.17
2019-04-01T19:41:49.044Z,25.53
2019-04-01T19:44:22.688Z,23.53
2019-04-01T19:46:51.957Z,27.87
2019-04-01T19:49:26.780Z,35.20
2019-04-01T19:51:57.719Z,28.40
2019-04-01T19:54:33.613Z,26.43
2019-04-01T19:57:03.153Z,24.00
2019-04-01T19:59:35.699Z,23.17
2019-04-01T20:02:09.730Z,24.00
2019-04-01T20:04:39.124Z,26.90
2019-04-01T20:07:10.775Z,24.57
2019-04-01T20:09:39.854Z,25.17
2019-04-01T20:12:10.104Z,25.27
2019-04-01T20:14:41.605Z,27.20
2019-04-01T20:17:19.215Z,23.70
2019-04-01T20:19:49.937Z,28.20
2019-04-01T20:22:19.075Z,24.20
2019-04-01T20:24:48.296Z,25.33
2019-04-01T20:27:23.037Z,30.80
2019-04-01T20:29:52.310Z,25.10
2019-04-01T20:32:22.786Z,29.80
2019-04-01T20:34:57.170Z,20.90
2019-04-01T20:37:23.762Z,30.20
2019-04-01T20:39:52.797Z,28.53
2019-04-01T20:42:22.967Z,30.33
2019-04-01T20:44:52.029Z,25.27
2019-04-01T20:47:21.125Z,25.43
2019-04-01T20:49:50.217Z,30.80
2019-04-01T20:52:26.780Z,32.57
2019-04-01T20:54:55.903Z,32.80
2019-04-01T20:57:24.981Z,31.93
2019-04-01T20:59:57.374Z,29.73
2019-04-01T21:02:28.052Z,32.10
2019-04-01T21:04:57.169Z,41.50
2019-04-01T21:07:26.229Z,33.10
2019-04-01T21:09:55.347Z,30.23
2019-04-01T21:12:24.405Z,37.43
2019-04-01T21:14:56.151Z,31.77
2019-04-01T21:17:25.382Z,32.87
2019-04-01T21:19:54.559Z,31.33
2019-04-01T21:22:23.604Z,36.47
2019-04-01T21:24:52.681Z,35.07
2019-04-01T21:27:23.174Z,32.83
2019-04-01T21:29:52.671Z,35.73
2019-04-01T21:32:21.778Z,31.23
2019-04-01T21:34:50.851Z,33.40
2019-04-01T21:37:19.917Z,35.10
2019-04-01T21:39:49.407Z,35.50
2019-04-01T21:42:22.964Z,33.60
2019-04-01T21:44:52.296Z,38.33
2019-04-01T21:47:25.511Z,32.10
2019-04-01T21:49:56.468Z,41.70
2019-04-01T21:52:26.784Z,36.40
2019-04-01T21:54:58.880Z,37.23
2019-04-01T21:57:30.077Z,37.90
2019-04-01T21:59:59.245Z,27.03
2019-04-01T22:02:40.436Z,39.90
2019-04-01T22:05:15.900Z,35.97
2019-04-01T22:07:48.241Z,31.70
2019-04-01T22:10:17.768Z,37.30
2019-04-01T22:12:46.818Z,34.77
2019-04-01T22:15:18.601Z,32.83
2019-04-01T22:18:01.038Z,36.90
2019-04-01T22:20:30.105Z,39.40
2019-04-01T22:23:00.440Z,36.20
2019-04-01T22:25:33.015Z,37.70
2019-04-01T22:28:02.114Z,42.60
2019-04-01T22:30:31.284Z,35.97
2019-04-01T22:33:00.336Z,36.20
2019-04-01T22:35:38.650Z,35.17
2019-04-01T22:38:00.389Z,40.53
2019-04-01T22:40:30.564Z,33.80
2019-04-01T22:43:01.287Z,34.60
2019-04-01T22:45:33.377Z,42.53
2019-04-01T22:48:11.579Z,36.07
2019-04-01T22:50:40.761Z,38.87
2019-04-01T22:53:09.835Z,35.23
2019-04-01T22:55:38.919Z,43.67
2019-04-01T22:58:08.003Z,34.03
2019-04-01T23:00:37.450Z,31.70
2019-04-01T23:03:07.082Z,36.63
2019-04-01T23:05:37.780Z,39.13
2019-04-01T23:08:07.401Z,40.33
2019-04-01T23:10:40.229Z,35.37
2019-04-01T23:13:09.308Z,40.90
2019-04-01T23:15:38.428Z,35.17
2019-04-01T23:18:07.540Z,37.50
2019-04-01T23:20:36.986Z,35.37
2019-04-01T23:23:09.628Z,36.27
2019-04-01T23:25:40.298Z,37.60
2019-04-01T23:28:11.686Z,35.10
2019-04-01T23:30:40.780Z,40.40
2019-04-01T23:33:09.868Z,33.57
2019-04-01T23:35:39.176Z,39.80
2019-04-01T23:38:11.428Z,35.77
2019-04-01T23:40:42.079Z,38.23
2019-04-01T23:43:11.231Z,37.93
2019-04-01T23:45:40.273Z,36.67
2019-04-01T23:48:11.178Z,37.23
2019-04-01T23:50:40.278Z,41.57
2019-04-01T23:53:11.128Z,39.13
2019-04-01T23:55:40.340Z,37.13
2019-04-01T23:58:09.445Z,34.00
